Ashland, Ohio
Current Conditions -  °F | °C
As of 2:52 PM on Sunday 21 Dec 2014 (Local Time) from KMFD Reporting Station
Clear Clear  
Wind Chill: 31°   Ceiling: Unl
Heat Index: 35°   Visibility: 10mi
Dew Point: 22°   Wind: 5mph
Humidity: 59%   Direction: 140°SE
Pressure: 30.2"   Gusts: NA
Location:  40.87°N, 82.31°W
Report Text: KMFD 211952Z 14004KT 10SM CLR 02/M06 A3020 RMK AO2 SLP239 T00171056
Loading
Personal Weather Stations






























Interactive Weather Map New forecast layout! Learn more

10-Day Weather Forecast

Advertisements
Track Severe Weather on mobile